Список аэропортов
Фактическая погода:

24 мая, 16:00
Температура: +11°C (+9.7*)
Ветер: северный 3 м/с
Давление: *764 мм
разорв. обл.
240 м
облачно
кучево-дождевые 930 м
слаб. ливневый дождь
Время (МСК)Темп. СВетерВлажностьДавлениеОблачностьОсадки
15:00+12С, 2 м/с90%1018 гПаоблачнодождь
16:00+12С, 2 м/с90%1018 гПаоблачнодождь
17:00+11С, 2 м/с88%1018 гПаоблачнодождь
18:00+11С, 1 м/с90%1018 гПаоблачнодождь
19:00+11СЗ, 1 м/с88%1018 гПаоблачносл. дождь
20:00+11СЗ, 1 м/с88%1019 гПаоблачнодождь
21:00+10З, 2 м/с90%1019 гПаоблачносл. дождь
22:00+10З, 2 м/с93%1019 гПаоблачносл. дождь
23:00+9З, 1 м/с94%1019 гПаоблачносл. дождь
25 мая
00:00+9З, 2 м/с94%1018 гПаоблачнодождь
01:00+9З, 2 м/с92%1018 гПаоблачнодождь
02:00+9З, 2 м/с92%1018 гПаоблачносл. дождь
03:00+9З, 2 м/с93%1018 гПаоблачно
04:00+9З, 2 м/с94%1018 гПас прояснениями
05:00+9З, 3 м/с92%1019 гПас прояснениями
06:00+9З, 2 м/с90%1018 гПаоблачно
07:00+11З, 3 м/с85%1018 гПаоблачно
08:00+12СЗ, 3 м/с76%1018 гПаоблачно
09:00+13СЗ, 3 м/с71%1018 гПаоблачно
10:00+14С, 3 м/с67%1017 гПаоблачно
11:00+15СЗ, 3 м/с65%1017 гПаоблачно
12:00+16СЗ, 3 м/с65%1017 гПаоблачносл. дождь
13:00+15СЗ, 3 м/с72%1017 гПаоблачнодождь
14:00+16СЗ, 3 м/с71%1017 гПаоблачнодождь
15:00+16СЗ, 3 м/с67%1016 гПаоблачнодождь
16:00+16СЗ, 3 м/с65%1016 гПаоблачносл. дождь
17:00+16С, 2 м/с63%1017 гПас прояснениямисл. дождь
18:00+16СВ, 2 м/с64%1017 гПас прояснениями
19:00+15СВ, 2 м/с66%1017 гПаоблачно
20:00+13СВ, 1 м/с75%1017 гПаоблачно
21:00+12В, 1 м/с85%1018 гПас прояснениями
22:00+11ЮВ, 1 м/с88%1018 гПамалооблачно
23:00+10ЮЗ, 1 м/с90%1017 гПамалооблачно
26 мая
00:00+10ЮЗ, 1 м/с93%1017 гПамалооблачно
01:00+9ЮЗ, 1 м/с96%1018 гПаясно
02:00+8ЮЗ, 1 м/с97%1017 гПаясно
03:00+8ЮЗ, 2 м/с98%1017 гПаясно
04:00+7ЮЗ, 2 м/с98%1017 гПамалооблачно
05:00+7ЮЗ, 2 м/с97%1018 гПамалооблачно
06:00+8ЮЗ, 1 м/с92%1017 гПаясно
07:00+12ЮЗ, 1 м/с78%1016 гПаясно
08:00+15В, 1 м/с66%1015 гПаясно
09:00+17В, 2 м/с60%1015 гПаясно
10:00+18В, 2 м/с58%1014 гПаясно
11:00+20В, 2 м/с55%1014 гПаясно
12:00+21СВ, 2 м/с52%1013 гПаясно
13:00+21СВ, 2 м/с49%1013 гПаясно
14:00+22СВ, 2 м/с47%1012 гПаясно
15:00+22СВ, 3 м/с47%1012 гПаясно